OLBA/BEY METAR and TAF weather

Enter ICAO airport designator
Station Type Date Time Source
OLBA METAR 2020/03/31 07:00 UTC NOAA

OLBA 310700Z 27003KT 190V300 7000 SCT080 SCT110 22/12 Q1010 NOSIG


Station Type Date Time Source
OLBA Decoded METAR 2020/03/31 07:00 UTC NOAA

Beyrouth Aeroport , Lebanon (OLBA) 33-49N 035-29E 19M
Mar 31, 2020 - 03:00 AM EDT / 2020.03.31 0700 UTC
Wind: from the W (270 degrees) at 3 MPH (3 KT) (direction variable):0
Visibility: 4 mile(s):0
Sky conditions: partly cloudy
Temperature: 71 F (22 C)
Dew Point: 53 F (12 C)
Relative Humidity: 53%
Pressure (altimeter): 29.83 in. Hg (1010 hPa)
ob: OLBA 310700Z 27003KT 190V300 7000 SCT080 SCT110 22/12 Q1010 NOSIG
cycle: 7

Station Type Date Time Source
OLBA TAF 2020/03/31 06:54 UTC NOAA

TAF TAF OLBA 310400Z 3106/0112 03015G25KT 6000 BKN100
TEMPO 3106/0106 4000 HZ
BECMG 3118/3121 20025G40KT
BECMG 0103/0106 BKN026
TEMPO 0100/0112 5000 RA

Example: see airport list